Mary Ann — WCY5683 — position and weather

sailwx.info

Track history (hours):
 
Tides and Currents Weather Stations Pressure Air Temp Water Temp Dewpoint Dewpoint Depression Visibility Wind Speed Wind Dir Waves Ship Positions

Mary Ann

Owner: GETZ, TIMOTHY M, SEAVILLE, NJ. More information available from US FCC via Universal Licensing System and Coast Guard Vessel Documentation Center.

Last reported at 2016-Apr-29 13:32 UTC. Time now 2016-Apr-29 13:56 UTC.
Position N 34°43' W 076°40'.

Length 22 m.

Type: Fishing. MMSI: 338382000.

Date/timePositionNaut miles runAvg speedWind from/ knotsBaromVisibWave heightAir tempDewpointWater temp
2016-Apr-29 13:32N 34°43' W 076°40'0 0.0
2016-Apr-29 12:32N 34°43' W 076°40'0 0.0
2016-Apr-29 11:32N 34°43' W 076°40'0 0.0
2016-Apr-29 10:32N 34°43' W 076°40'0 0.0
2016-Apr-29 09:32N 34°43' W 076°40'0 0.0
2016-Apr-29 08:32N 34°43' W 076°40'2 2.5
2016-Apr-29 07:33N 34°41' W 076°40'7 6.5
2016-Apr-29 06:33N 34°35' W 076°36'2 0.1
2016-Apr-27 14:17N 34°34' W 076°34'5 7.1
2016-Apr-27 13:33N 34°38' W 076°38'6 5.8
2016-Apr-27 12:33N 34°43' W 076°40'0 0.2
2016-Apr-27 11:32N 34°43' W 076°40'0 0.0
2016-Apr-27 10:32N 34°43' W 076°40'0 0.0
2016-Apr-27 09:29N 34°43' W 076°40'0 0.0
2016-Apr-27 08:32N 34°43' W 076°40'0 0.0
2016-Apr-27 07:32N 34°43' W 076°40'0 0.0
2016-Apr-27 06:32N 34°43' W 076°40'0 0.0
2016-Apr-27 05:32N 34°43' W 076°40'0 0.0
2016-Apr-27 04:32N 34°43' W 076°40'0 0.0
2016-Apr-27 03:32N 34°43' W 076°40'0 0.0
2016-Apr-27 02:32N 34°43' W 076°40'0 0.0
2016-Apr-27 01:32N 34°43' W 076°40'0 0.0
2016-Apr-27 00:32N 34°43' W 076°40'0 0.0
2016-Apr-26 23:32N 34°43' W 076°40'0 0.0
2016-Apr-26 22:32N 34°43' W 076°40'0 0.0
2016-Apr-26 21:32N 34°43' W 076°40'0 0.0
2016-Apr-26 20:32N 34°43' W 076°40'0 0.0
2016-Apr-26 19:32N 34°43' W 076°40'0 0.0
2016-Apr-26 18:32N 34°43' W 076°40'0 0.0
2016-Apr-26 17:32N 34°43' W 076°40'0 0.0
2016-Apr-26 16:32N 34°43' W 076°40'0 0.0
2016-Apr-26 15:32N 34°43' W 076°40'0 0.0
2016-Apr-26 14:32N 34°43' W 076°40'0 0.1
2016-Apr-26 13:33N 34°43' W 076°40'0 0.0
2016-Apr-26 12:33N 34°43' W 076°40'0 0.0
2016-Apr-26 11:33N 34°43' W 076°40'0 0.0
2016-Apr-26 10:33N 34°43' W 076°40'0 0.0
2016-Apr-26 09:33N 34°43' W 076°40'0 0.0
2016-Apr-26 08:33N 34°43' W 076°40'0 0.0
2016-Apr-26 07:33N 34°43' W 076°40'0 0.0
2016-Apr-26 06:33N 34°43' W 076°40'0 0.0
2016-Apr-26 05:33N 34°43' W 076°40'0 0.0
2016-Apr-26 04:30N 34°43' W 076°40'0 0.0
2016-Apr-26 03:33N 34°43' W 076°40'5 4.7
2016-Apr-26 02:33N 34°39' W 076°39'7 7.0
2016-Apr-26 01:33N 34°33' W 076°35'  
Track history (hours):
 
Tides and Currents Weather Stations Pressure Air Temp Water Temp Dewpoint Dewpoint Depression Visibility Wind Speed Wind Dir Waves Ship Positions

Mary Ann

Owner: GETZ, TIMOTHY M, SEAVILLE, NJ. More information available from US FCC via Universal Licensing System and Coast Guard Vessel Documentation Center.

Last reported at 2016-Apr-29 13:32 UTC. Time now 2016-Apr-29 13:56 UTC.
Position N 34°43' W 076°40'.

Length 22 m.

Type: Fishing. MMSI: 338382000.

Date/timePositionNaut miles runAvg speedWind from/ knotsBaromVisibWave heightAir tempDewpointWater temp
2016-Apr-29 13:32N 34°43' W 076°40'0 0.0
2016-Apr-29 12:32N 34°43' W 076°40'0 0.0
2016-Apr-29 11:32N 34°43' W 076°40'0 0.0
2016-Apr-29 10:32N 34°43' W 076°40'0 0.0
2016-Apr-29 09:32N 34°43' W 076°40'0 0.0
2016-Apr-29 08:32N 34°43' W 076°40'2 2.5
2016-Apr-29 07:33N 34°41' W 076°40'7 6.5
2016-Apr-29 06:33N 34°35' W 076°36'2 0.1
2016-Apr-27 14:17N 34°34' W 076°34'5 7.1
2016-Apr-27 13:33N 34°38' W 076°38'6 5.8
2016-Apr-27 12:33N 34°43' W 076°40'0 0.2
2016-Apr-27 11:32N 34°43' W 076°40'0 0.0
2016-Apr-27 10:32N 34°43' W 076°40'0 0.0
2016-Apr-27 09:29N 34°43' W 076°40'0 0.0
2016-Apr-27 08:32N 34°43' W 076°40'0 0.0
2016-Apr-27 07:32N 34°43' W 076°40'0 0.0
2016-Apr-27 06:32N 34°43' W 076°40'0 0.0
2016-Apr-27 05:32N 34°43' W 076°40'0 0.0
2016-Apr-27 04:32N 34°43' W 076°40'0 0.0
2016-Apr-27 03:32N 34°43' W 076°40'0 0.0
2016-Apr-27 02:32N 34°43' W 076°40'0 0.0
2016-Apr-27 01:32N 34°43' W 076°40'0 0.0
2016-Apr-27 00:32N 34°43' W 076°40'0 0.0
2016-Apr-26 23:32N 34°43' W 076°40'0 0.0
2016-Apr-26 22:32N 34°43' W 076°40'0 0.0
2016-Apr-26 21:32N 34°43' W 076°40'0 0.0
2016-Apr-26 20:32N 34°43' W 076°40'0 0.0
2016-Apr-26 19:32N 34°43' W 076°40'0 0.0
2016-Apr-26 18:32N 34°43' W 076°40'0 0.0
2016-Apr-26 17:32N 34°43' W 076°40'0 0.0
2016-Apr-26 16:32N 34°43' W 076°40'0 0.0
2016-Apr-26 15:32N 34°43' W 076°40'0 0.0
2016-Apr-26 14:32N 34°43' W 076°40'0 0.1
2016-Apr-26 13:33N 34°43' W 076°40'0 0.0
2016-Apr-26 12:33N 34°43' W 076°40'0 0.0
2016-Apr-26 11:33N 34°43' W 076°40'0 0.0
2016-Apr-26 10:33N 34°43' W 076°40'0 0.0
2016-Apr-26 09:33N 34°43' W 076°40'0 0.0
2016-Apr-26 08:33N 34°43' W 076°40'0 0.0
2016-Apr-26 07:33N 34°43' W 076°40'0 0.0
2016-Apr-26 06:33N 34°43' W 076°40'0 0.0
2016-Apr-26 05:33N 34°43' W 076°40'0 0.0
2016-Apr-26 04:30N 34°43' W 076°40'0 0.0
2016-Apr-26 03:33N 34°43' W 076°40'5 4.7
2016-Apr-26 02:33N 34°39' W 076°39'7 7.0
2016-Apr-26 01:33N 34°33' W 076°35'  

Dump ship's entire track history